x

Bay Of Campeche - 214 Nm Ne Of Veracruz, Mx (42055) Wave Buoy

12:50am - Mon 26th Jan 2015 All times are UTC.

  • Sig Wave height 2.3ft
  • Swell Direction
  • Peak Period 7s
  • Average Period 5s
  • Wind
    9mph, 11mph gusts
  • Sea Temp 76°f
  • Air Temp 70°f
  • Sea Pressure 1019.8mb

More Historic Weather Station data

Upgrade to MSW Pro to gain access to the past 30 days of data for over 8000 Wavebouys and Weather Stations around the globe.

Join Pro

Comparision Forecast

View Surf forecast
   
Mon 01/26 12:50am 2.5ft 7s 5s 9 11 mph 1019.8mb 76f 70f
Sun 01/25 11:50pm 2.5ft 7s 5s 7 9 mph 1019.1mb 76f 69f
10:50pm 2.5ft 7s 5s 9 11 mph 1018.5mb 76f 69f
9:50pm 2.5ft 6s 5s 4 9 mph 1018.3mb 76f 69f
8:50pm 2.5ft 7s 5s 4 9 mph 1018.6mb 76f 69f
7:50pm 2.5ft 7s 5s 4 9 mph 1019mb 76f 69f
6:50pm 3ft 7s 5s 4 7 mph 1019.5mb 76f 69f
5:50pm 3.5ft 7s 6s 2 4 mph 1020.6mb 76f 69f
4:50pm 3.5ft 8s 6s 2 4 mph 1021mb 76f 69f
3:50pm 3.5ft 7s 6s 4 9 mph 1020.7mb 75f 69f
2:50pm 3.5ft 8s 6s 7 9 mph 1020.1mb 75f 68f
1:50pm 3.5ft 8s 6s 4 7 mph 1019.6mb 75f 68f
12:50pm 3.5ft 8s 6s 4 7 mph 1019.5mb 75f 67f
11:50am 4ft 8s 6s 7 9 mph 1019.2mb 75f 67f
10:50am 4ft 8s 6s 7 9 mph 1019.1mb 75f 67f
9:50am 4.5ft 8s 6s 7 11 mph 1019.3mb 75f 67f
8:50am 4.5ft 8s 6s 7 9 mph 1019.8mb 75f 67f
7:50am 4.5ft 9s 6s 4 7 mph 1020.5mb 75f 67f
6:50am 5ft 8s 6s 2 4 mph 1021.1mb 75f 67f
5:50am 5.5ft 9s 6s 2 7 mph 1021.9mb 75f 67f
4:50am 6ft 9s 6s 7 9 mph 1022.2mb 75f 67f
3:50am 6ft 8s 6s 9 11 mph 1022.2mb 75f 67f
2:50am 6ft 9s 6s 9 13 mph 1022.1mb 75f 67f
1:50am 6ft 8s 6s 11 16 mph 1022.3mb 75f 67f
12:50am 6ft 9s 6s 13 18 mph 1021.8mb 75f 67f
Sat 01/24 11:50pm 7ft 9s 7s 13 16 mph 1021.4mb 75f 67f
10:50pm 7ft 9s 6s 13 18 mph 1021.2mb 75f 67f
9:50pm 7.5ft 10s 6s 16 20 mph 1021.2mb 75f 67f
8:50pm 8.5ft 9s 7s 13 20 mph 1021.6mb 75f 67f
7:50pm 9.5ft 9s 7s 18 22 mph 1021.9mb 75f 67f
6:50pm 10ft 10s 7s 18 25 mph 1022.8mb 75f 67f
5:50pm 9.5ft 10s 7s 22 27 mph 1023.5mb 75f 67f
4:50pm 9.5ft 10s 7s 20 25 mph 1024.6mb 75f 67f
3:50pm 10ft 10s 7s 22 29 mph 1024.4mb 75f 67f
2:50pm 10.5ft 10s 7s 27 34 mph 1023.1mb 75f 67f
1:50pm 10.5ft 9s 7s 29 36 mph 1022.1mb 75f 67f
12:50pm 11ft 9s 7s 29 36 mph 1021.8mb 75f 67f
11:50am 12ft 10s 7s 27 34 mph 1021.5mb 75f 67f
10:50am 12ft 9s 7s 31 38 mph 1020.6mb 75f 67f
9:50am 12ft 11s 7s 31 38 mph 1020.3mb 75f 68f
8:50am 12ft 10s 7s 31 40 mph 1020mb 75f 67f
7:50am 13ft 10s 7s 34 40 mph 1020.1mb 75f 67f
6:50am 13ft 10s 7s 31 40 mph 1020.7mb 75f 68f
5:50am 13ft 10s 7s 29 36 mph 1021.1mb 75f 68f
4:50am 11.5ft 10s 7s 29 34 mph 1021.2mb 75f 68f
3:50am 13ft 10s 7s 29 34 mph 1020.8mb 75f 69f
2:50am 13ft 10s 7s 31 36 mph 1020mb 75f 69f
1:50am 11.5ft 10s 7s 31 38 mph 1019.1mb 76f 69f
12:50am 12ft 10s 7s 29 38 mph 1018.1mb 76f 69f
Fri 01/23 11:50pm 12ft 11s 7s 29 38 mph 1017.1mb 76f 69f
10:50pm 11.5ft 10s 7s 31 36 mph 1016.4mb 76f 69f
9:50pm 11ft 9s 7s 31 38 mph 1015.8mb 76f 69f
8:50pm 11ft 10s 7s 29 36 mph 1015.5mb 76f 69f
7:50pm 11ft 9s 7s 27 34 mph 1015.4mb 76f 69f
6:50pm 10.5ft 9s 6s 27 31 mph 1016mb 76f 70f
5:50pm 10ft 9s 7s 25 31 mph 1016.6mb 76f 71f
4:50pm 9.5ft 8s 6s 27 31 mph 1016.3mb 76f 72f
3:50pm 6ft 6s 5s 25 29 mph 1016mb 76f 73f
2:50pm 5ft 5s 4s 25 29 mph 1015.1mb 76f 73f
1:50pm 4ft 4s 4s 25 27 mph 1014.1mb 76f 74f
12:50pm 3.5ft 6s 4s 22 25 mph 1013.5mb 76f 74f
11:50am 3.5ft 6s 5s 22 25 mph 1012.7mb 76f 74f
10:50am 3.5ft 6s 5s 7 9 mph 1012.4mb 76f 75f
9:50am 3.5ft 6s 5s 13 16 mph 1012.6mb 76f 75f
8:50am 3.5ft 6s 5s 9 11 mph 1012.4mb 76f 75f
7:50am 4ft 6s 5s 11 13 mph 1013mb 76f 75f
6:50am 4ft 6s 5s 9 11 mph 1013mb 76f 75f
5:50am 4ft 6s 5s 7 9 mph 1013mb 76f 76f
4:50am 4.5ft 6s 5s 7 9 mph 1012.9mb 76f 76f
3:50am 4.5ft 7s 5s 13 16 mph 1012.4mb 76f 76f
2:50am 4.5ft 6s 5s 13 16 mph 1012.3mb 76f 76f
1:50am 4.5ft 6s 5s 11 13 mph 1012.2mb 76f 76f
12:50am 4.5ft 6s 5s 13 16 mph 1011.3mb 76f 76f
Thu 01/22 11:50pm 4.5ft 6s 5s 16 20 mph 1010.6mb 76f 76f
10:50pm 4.5ft 6s 5s 16 20 mph 1010.3mb 76f 76f
9:50pm 4.5ft 5s 5s 18 22 mph 1009.9mb 76f 76f
8:50pm 4.5ft 6s 5s 18 22 mph 1010.1mb 76f 76f
7:50pm 4ft 6s 4s 20 25 mph 1010.5mb 76f 76f
6:50pm 3.5ft 5s 4s 22 25 mph 1011.2mb 76f 76f
5:50pm 3.5ft 6s 4s 22 25 mph 1012.2mb 76f 77f
4:50pm 3.5ft 5s 4s 16 20 mph 1013.4mb 76f 77f
3:50pm 3.5ft 6s 4s 16 18 mph 1013.9mb 76f 76f
2:50pm 3.5ft 6s 4s 18 20 mph 1013.6mb 76f 76f
1:50pm 4ft 5s 4s 18 20 mph 1013.3mb 76f 76f
12:50pm 3.5ft 5s 4s 16 18 mph 1013.2mb 76f 76f
11:50am 3.5ft 5s 4s 16 18 mph 1012.9mb 76f 76f
10:50am 3.5ft 5s 4s 16 18 mph 1012.9mb 76f 75f
9:50am 3.5ft 5s 4s 16 18 mph 1012.8mb 76f 75f
8:50am 3.5ft 5s 4s 16 20 mph 1012.9mb 76f 75f
7:50am 3.5ft 5s 4s 18 22 mph 1013mb 76f 75f
6:50am 3ft 4s 4s 18 22 mph 1013.6mb 76f 75f
5:50am 2.5ft 4s 4s 18 22 mph 1013.8mb 76f 75f
4:50am 2.5ft 4s 4s 16 20 mph 1014.1mb 76f 75f
3:50am 2.5ft 5s 4s 16 18 mph 1014mb 76f 75f
2:50am 2.5ft 4s 4s 16 18 mph 1013.7mb 76f 75f